sensor_id;sensor_type;location;lat;lon;timestamp;P1;durP1;ratioP1;P2;durP2;ratioP2
1054;SDS011;516;51.482;7.120;2023-02-15T00:02:11;34.17;;;22.60;;
1054;SDS011;516;51.482;7.120;2023-02-15T00:07:59;28.47;;;21.50;;
1054;SDS011;516;51.482;7.120;2023-02-15T00:13:47;36.00;;;23.63;;
1054;SDS011;516;51.482;7.120;2023-02-15T00:19:35;31.90;;;22.90;;
1054;SDS011;516;51.482;7.120;2023-02-15T00:25:22;36.60;;;22.87;;
1054;SDS011;516;51.482;7.120;2023-02-15T00:31:11;51.47;;;24.33;;
1054;SDS011;516;51.482;7.120;2023-02-15T00:36:59;28.30;;;21.27;;
1054;SDS011;516;51.482;7.120;2023-02-15T00:42:46;41.53;;;24.97;;
1054;SDS011;516;51.482;7.120;2023-02-15T00:48:34;34.07;;;24.10;;
1054;SDS011;516;51.482;7.120;2023-02-15T00:54:14;36.60;;;23.70;;
1054;SDS011;516;51.482;7.120;2023-02-15T01:00:02;32.30;;;22.67;;
1054;SDS011;516;51.482;7.120;2023-02-15T01:05:49;35.43;;;24.53;;
1054;SDS011;516;51.482;7.120;2023-02-15T01:11:37;34.10;;;24.10;;
1054;SDS011;516;51.482;7.120;2023-02-15T01:17:25;33.07;;;24.67;;
1054;SDS011;516;51.482;7.120;2023-02-15T01:23:13;34.33;;;23.57;;
1054;SDS011;516;51.482;7.120;2023-02-15T01:29:01;36.63;;;26.03;;
1054;SDS011;516;51.482;7.120;2023-02-15T01:34:48;36.37;;;25.47;;
1054;SDS011;516;51.482;7.120;2023-02-15T01:40:36;40.10;;;22.03;;
1054;SDS011;516;51.482;7.120;2023-02-15T01:46:37;30.90;;;24.33;;
1054;SDS011;516;51.482;7.120;2023-02-15T02:02:13;36.40;;;23.70;;
1054;SDS011;516;51.482;7.120;2023-02-15T02:08:03;33.93;;;25.17;;
1054;SDS011;516;51.482;7.120;2023-02-15T02:13:51;42.20;;;25.10;;
1054;SDS011;516;51.482;7.120;2023-02-15T02:39:19;35.37;;;22.67;;
1054;SDS011;516;51.482;7.120;2023-02-15T02:45:52;37.37;;;25.03;;
1054;SDS011;516;51.482;7.120;2023-02-15T02:51:45;39.70;;;24.33;;
1054;SDS011;516;51.482;7.120;2023-02-15T02:57:32;36.17;;;22.10;;
1054;SDS011;516;51.482;7.120;2023-02-15T03:03:28;28.53;;;21.87;;
1054;SDS011;516;51.482;7.120;2023-02-15T03:09:25;39.10;;;25.07;;
1054;SDS011;516;51.482;7.120;2023-02-15T03:15:52;41.40;;;24.33;;
1054;SDS011;516;51.482;7.120;2023-02-15T03:22:03;34.33;;;24.77;;
1054;SDS011;516;51.482;7.120;2023-02-15T03:34:19;39.60;;;24.50;;
1054;SDS011;516;51.482;7.120;2023-02-15T03:40:49;46.33;;;25.63;;
1054;SDS011;516;51.482;7.120;2023-02-15T03:56:59;43.20;;;26.13;;
1054;SDS011;516;51.482;7.120;2023-02-15T04:08:56;42.70;;;28.40;;
1054;SDS011;516;51.482;7.120;2023-02-15T04:15:04;39.40;;;27.03;;
1054;SDS011;516;51.482;7.120;2023-02-15T04:21:10;42.97;;;29.40;;
1054;SDS011;516;51.482;7.120;2023-02-15T04:27:15;55.97;;;28.70;;
1054;SDS011;516;51.482;7.120;2023-02-15T04:33:02;41.70;;;29.97;;
1054;SDS011;516;51.482;7.120;2023-02-15T04:38:49;44.97;;;27.87;;
1054;SDS011;516;51.482;7.120;2023-02-15T04:44:36;38.53;;;26.87;;
1054;SDS011;516;51.482;7.120;2023-02-15T04:50:23;38.07;;;27.97;;
1054;SDS011;516;51.482;7.120;2023-02-15T05:05:27;42.17;;;26.07;;
1054;SDS011;516;51.482;7.120;2023-02-15T05:11:14;44.50;;;29.20;;
1054;SDS011;516;51.482;7.120;2023-02-15T05:17:02;41.80;;;29.60;;
1054;SDS011;516;51.482;7.120;2023-02-15T05:22:53;42.63;;;29.53;;
1054;SDS011;516;51.482;7.120;2023-02-15T05:28:41;52.03;;;31.93;;
1054;SDS011;516;51.482;7.120;2023-02-15T05:34:29;51.13;;;32.20;;
1054;SDS011;516;51.482;7.120;2023-02-15T05:40:16;46.77;;;30.27;;
1054;SDS011;516;51.482;7.120;2023-02-15T05:46:04;48.67;;;32.50;;
1054;SDS011;516;51.482;7.120;2023-02-15T05:51:53;52.57;;;32.73;;
1054;SDS011;516;51.482;7.120;2023-02-15T06:01:11;45.70;;;33.77;;
1054;SDS011;516;51.482;7.120;2023-02-15T06:07:04;53.67;;;32.83;;
1054;SDS011;516;51.482;7.120;2023-02-15T06:12:52;50.00;;;34.10;;
1054;SDS011;516;51.482;7.120;2023-02-15T06:18:40;54.20;;;34.20;;
1054;SDS011;516;51.482;7.120;2023-02-15T06:24:27;51.17;;;32.37;;
1054;SDS011;516;51.482;7.120;2023-02-15T06:30:15;53.67;;;33.27;;
1054;SDS011;516;51.482;7.120;2023-02-15T06:36:03;53.17;;;33.40;;
1054;SDS011;516;51.482;7.120;2023-02-15T06:41:51;53.57;;;34.80;;
1054;SDS011;516;51.482;7.120;2023-02-15T06:47:38;57.17;;;34.10;;
1054;SDS011;516;51.482;7.120;2023-02-15T06:53:26;58.43;;;34.30;;
1054;SDS011;516;51.482;7.120;2023-02-15T06:59:14;47.53;;;31.93;;
1054;SDS011;516;51.482;7.120;2023-02-15T07:08:43;49.23;;;34.70;;
1054;SDS011;516;51.482;7.120;2023-02-15T07:14:30;53.33;;;34.13;;
1054;SDS011;516;51.482;7.120;2023-02-15T07:20:19;51.53;;;32.70;;
1054;SDS011;516;51.482;7.120;2023-02-15T07:26:08;51.00;;;35.20;;
1054;SDS011;516;51.482;7.120;2023-02-15T07:31:55;47.33;;;31.13;;
1054;SDS011;516;51.482;7.120;2023-02-15T07:37:42;48.93;;;31.70;;
1054;SDS011;516;51.482;7.120;2023-02-15T07:43:32;50.20;;;34.50;;
1054;SDS011;516;51.482;7.120;2023-02-15T07:49:20;47.17;;;31.90;;
1054;SDS011;516;51.482;7.120;2023-02-15T07:55:08;41.20;;;30.90;;
1054;SDS011;516;51.482;7.120;2023-02-15T08:00:34;38.90;;;30.17;;
1054;SDS011;516;51.482;7.120;2023-02-15T08:06:41;34.13;;;30.10;;
1054;SDS011;516;51.482;7.120;2023-02-15T08:12:29;34.73;;;30.97;;
1054;SDS011;516;51.482;7.120;2023-02-15T08:18:16;38.40;;;34.33;;
1054;SDS011;516;51.482;7.120;2023-02-15T08:24:05;33.87;;;30.63;;
1054;SDS011;516;51.482;7.120;2023-02-15T08:29:53;38.63;;;34.43;;
1054;SDS011;516;51.482;7.120;2023-02-15T08:35:40;37.90;;;34.27;;
1054;SDS011;516;51.482;7.120;2023-02-15T08:41:35;38.13;;;34.40;;
1054;SDS011;516;51.482;7.120;2023-02-15T08:47:24;36.13;;;32.83;;
1054;SDS011;516;51.482;7.120;2023-02-15T08:53:12;34.07;;;31.17;;
1054;SDS011;516;51.482;7.120;2023-02-15T09:02:40;32.53;;;29.73;;
1054;SDS011;516;51.482;7.120;2023-02-15T09:08:28;33.03;;;30.03;;
1054;SDS011;516;51.482;7.120;2023-02-15T09:14:17;36.70;;;31.50;;
1054;SDS011;516;51.482;7.120;2023-02-15T09:20:07;32.17;;;29.13;;
1054;SDS011;516;51.482;7.120;2023-02-15T09:25:55;31.43;;;28.33;;
1054;SDS011;516;51.482;7.120;2023-02-15T09:31:44;31.83;;;28.80;;
1054;SDS011;516;51.482;7.120;2023-02-15T09:37:33;32.80;;;29.60;;
1054;SDS011;516;51.482;7.120;2023-02-15T09:43:24;33.37;;;30.27;;
1054;SDS011;516;51.482;7.120;2023-02-15T09:49:58;30.53;;;28.03;;
1054;SDS011;516;51.482;7.120;2023-02-15T09:56:31;32.70;;;29.70;;
1054;SDS011;516;51.482;7.120;2023-02-15T10:34:50;30.37;;;27.57;;
1054;SDS011;516;51.482;7.120;2023-02-15T11:08:29;28.37;;;25.80;;
1054;SDS011;516;51.482;7.120;2023-02-15T11:20:16;30.20;;;27.53;;
1054;SDS011;516;51.482;7.120;2023-02-15T11:26:46;29.90;;;27.17;;
1054;SDS011;516;51.482;7.120;2023-02-15T11:32:39;28.30;;;25.87;;
1054;SDS011;516;51.482;7.120;2023-02-15T11:38:33;27.70;;;25.10;;
1054;SDS011;516;51.482;7.120;2023-02-15T11:44:23;24.93;;;22.77;;
1054;SDS011;516;51.482;7.120;2023-02-15T11:50:15;27.33;;;25.20;;
1054;SDS011;516;51.482;7.120;2023-02-15T11:56:13;25.70;;;23.20;;
1054;SDS011;516;51.482;7.120;2023-02-15T12:02:07;24.90;;;22.70;;
1054;SDS011;516;51.482;7.120;2023-02-15T12:08:39;24.20;;;22.20;;
1054;SDS011;516;51.482;7.120;2023-02-15T12:14:38;22.83;;;20.83;;
1054;SDS011;516;51.482;7.120;2023-02-15T12:21:12;25.37;;;23.10;;
1054;SDS011;516;51.482;7.120;2023-02-15T12:27:23;27.13;;;24.50;;
1054;SDS011;516;51.482;7.120;2023-02-15T12:33:21;24.77;;;22.60;;
1054;SDS011;516;51.482;7.120;2023-02-15T12:39:51;21.57;;;19.87;;
1054;SDS011;516;51.482;7.120;2023-02-15T12:45:41;24.50;;;22.53;;
1054;SDS011;516;51.482;7.120;2023-02-15T12:51:29;24.07;;;22.10;;
1054;SDS011;516;51.482;7.120;2023-02-15T12:56:59;25.60;;;23.40;;
1054;SDS011;516;51.482;7.120;2023-02-15T13:02:48;25.97;;;23.87;;
1054;SDS011;516;51.482;7.120;2023-02-15T13:08:44;25.43;;;22.87;;
1054;SDS011;516;51.482;7.120;2023-02-15T13:14:54;26.93;;;24.43;;
1054;SDS011;516;51.482;7.120;2023-02-15T13:20:43;26.10;;;23.90;;
1054;SDS011;516;51.482;7.120;2023-02-15T13:26:32;24.13;;;22.20;;
1054;SDS011;516;51.482;7.120;2023-02-15T13:32:31;26.17;;;24.07;;
1054;SDS011;516;51.482;7.120;2023-02-15T13:38:46;25.23;;;23.10;;
1054;SDS011;516;51.482;7.120;2023-02-15T14:20:39;25.77;;;23.30;;
1054;SDS011;516;51.482;7.120;2023-02-15T14:30:32;25.23;;;23.00;;
1054;SDS011;516;51.482;7.120;2023-02-15T14:36:26;24.53;;;22.40;;
1054;SDS011;516;51.482;7.120;2023-02-15T14:42:28;26.47;;;23.73;;
1054;SDS011;516;51.482;7.120;2023-02-15T14:48:56;24.20;;;21.83;;
1054;SDS011;516;51.482;7.120;2023-02-15T14:55:12;22.60;;;20.63;;
1054;SDS011;516;51.482;7.120;2023-02-15T15:01:58;27.10;;;24.50;;
1054;SDS011;516;51.482;7.120;2023-02-15T15:08:22;25.80;;;23.73;;
1054;SDS011;516;51.482;7.120;2023-02-15T15:23:40;23.30;;;21.07;;
1054;SDS011;516;51.482;7.120;2023-02-15T15:29:39;24.23;;;21.77;;
1054;SDS011;516;51.482;7.120;2023-02-15T15:35:35;23.40;;;21.30;;
1054;SDS011;516;51.482;7.120;2023-02-15T15:48:48;22.50;;;20.63;;
1054;SDS011;516;51.482;7.120;2023-02-15T16:04:49;24.90;;;22.30;;
1054;SDS011;516;51.482;7.120;2023-02-15T16:13:58;26.73;;;23.93;;
1054;SDS011;516;51.482;7.120;2023-02-15T16:19:46;26.23;;;24.03;;
1054;SDS011;516;51.482;7.120;2023-02-15T16:25:47;26.53;;;23.90;;
1054;SDS011;516;51.482;7.120;2023-02-15T16:38:07;31.50;;;24.70;;
1054;SDS011;516;51.482;7.120;2023-02-15T16:43:58;28.47;;;25.70;;
1054;SDS011;516;51.482;7.120;2023-02-15T16:49:51;26.80;;;24.40;;
1054;SDS011;516;51.482;7.120;2023-02-15T16:55:41;28.40;;;25.23;;
1054;SDS011;516;51.482;7.120;2023-02-15T17:01:30;28.50;;;25.57;;
1054;SDS011;516;51.482;7.120;2023-02-15T17:07:19;30.00;;;27.20;;
1054;SDS011;516;51.482;7.120;2023-02-15T17:16:31;27.20;;;24.07;;
1054;SDS011;516;51.482;7.120;2023-02-15T17:22:23;28.30;;;25.40;;
1054;SDS011;516;51.482;7.120;2023-02-15T17:28:19;31.67;;;25.87;;
1054;SDS011;516;51.482;7.120;2023-02-15T17:41:31;36.33;;;30.50;;
1054;SDS011;516;51.482;7.120;2023-02-15T17:47:43;33.43;;;29.83;;
1054;SDS011;516;51.482;7.120;2023-02-15T17:53:33;38.97;;;29.63;;
1054;SDS011;516;51.482;7.120;2023-02-15T17:59:21;31.43;;;28.47;;
1054;SDS011;516;51.482;7.120;2023-02-15T18:05:12;28.30;;;25.47;;
1054;SDS011;516;51.482;7.120;2023-02-15T18:11:19;34.40;;;28.07;;
1054;SDS011;516;51.482;7.120;2023-02-15T18:17:35;29.40;;;26.33;;
1054;SDS011;516;51.482;7.120;2023-02-15T18:24:19;33.77;;;30.33;;
1054;SDS011;516;51.482;7.120;2023-02-15T18:34:14;27.80;;;24.93;;
1054;SDS011;516;51.482;7.120;2023-02-15T18:40:43;25.47;;;22.97;;
1054;SDS011;516;51.482;7.120;2023-02-15T18:46:30;27.33;;;24.70;;
1054;SDS011;516;51.482;7.120;2023-02-15T18:52:19;27.63;;;24.23;;
1054;SDS011;516;51.482;7.120;2023-02-15T18:57:50;29.73;;;26.70;;
1054;SDS011;516;51.482;7.120;2023-02-15T19:03:39;27.80;;;25.20;;
1054;SDS011;516;51.482;7.120;2023-02-15T19:09:27;29.50;;;26.70;;
1054;SDS011;516;51.482;7.120;2023-02-15T19:12:00;27.23;;;24.33;;
1054;SDS011;516;51.482;7.120;2023-02-15T19:14:27;26.70;;;23.90;;
1054;SDS011;516;51.482;7.120;2023-02-15T19:20:20;29.93;;;26.83;;
1054;SDS011;516;51.482;7.120;2023-02-15T19:26:10;30.17;;;27.20;;
1054;SDS011;516;51.482;7.120;2023-02-15T19:31:58;30.13;;;27.00;;
1054;SDS011;516;51.482;7.120;2023-02-15T19:37:47;28.67;;;25.80;;
1054;SDS011;516;51.482;7.120;2023-02-15T19:43:37;30.67;;;27.10;;
1054;SDS011;516;51.482;7.120;2023-02-15T19:49:25;30.70;;;27.60;;
1054;SDS011;516;51.482;7.120;2023-02-15T19:55:17;29.87;;;26.77;;
1054;SDS011;516;51.482;7.120;2023-02-15T20:01:08;30.13;;;27.30;;
1054;SDS011;516;51.482;7.120;2023-02-15T20:06:56;29.27;;;26.33;;
1054;SDS011;516;51.482;7.120;2023-02-15T20:22:21;28.50;;;25.60;;
1054;SDS011;516;51.482;7.120;2023-02-15T20:28:20;30.27;;;26.97;;
1054;SDS011;516;51.482;7.120;2023-02-15T20:34:11;40.87;;;35.10;;
1054;SDS011;516;51.482;7.120;2023-02-15T20:39:58;39.90;;;32.87;;
1054;SDS011;516;51.482;7.120;2023-02-15T20:45:46;38.10;;;32.30;;
1054;SDS011;516;51.482;7.120;2023-02-15T20:51:34;37.63;;;30.80;;
1054;SDS011;516;51.482;7.120;2023-02-15T20:57:22;43.80;;;32.13;;
1054;SDS011;516;51.482;7.120;2023-02-15T21:03:11;45.70;;;36.00;;
1054;SDS011;516;51.482;7.120;2023-02-15T21:09:00;43.37;;;34.37;;
1054;SDS011;516;51.482;7.120;2023-02-15T21:14:26;37.87;;;29.97;;
1054;SDS011;516;51.482;7.120;2023-02-15T21:20:15;40.27;;;30.83;;
1054;SDS011;516;51.482;7.120;2023-02-15T21:26:02;43.00;;;33.90;;
1054;SDS011;516;51.482;7.120;2023-02-15T21:31:50;39.70;;;31.80;;
1054;SDS011;516;51.482;7.120;2023-02-15T21:37:38;45.20;;;34.07;;
1054;SDS011;516;51.482;7.120;2023-02-15T21:43:27;44.23;;;34.83;;
1054;SDS011;516;51.482;7.120;2023-02-15T21:49:34;39.77;;;30.33;;
1054;SDS011;516;51.482;7.120;2023-02-15T21:55:21;37.10;;;30.40;;
1054;SDS011;516;51.482;7.120;2023-02-15T22:07:12;35.40;;;28.50;;
1054;SDS011;516;51.482;7.120;2023-02-15T22:22:16;35.97;;;29.63;;
1054;SDS011;516;51.482;7.120;2023-02-15T22:28:04;40.03;;;29.40;;
1054;SDS011;516;51.482;7.120;2023-02-15T22:34:02;40.77;;;29.30;;
1054;SDS011;516;51.482;7.120;2023-02-15T22:39:50;35.60;;;28.50;;
1054;SDS011;516;51.482;7.120;2023-02-15T22:45:38;32.27;;;26.40;;
1054;SDS011;516;51.482;7.120;2023-02-15T22:51:26;37.63;;;28.03;;
1054;SDS011;516;51.482;7.120;2023-02-15T22:57:19;33.70;;;25.83;;
1054;SDS011;516;51.482;7.120;2023-02-15T23:03:30;37.90;;;29.10;;
1054;SDS011;516;51.482;7.120;2023-02-15T23:09:19;41.00;;;27.60;;
1054;SDS011;516;51.482;7.120;2023-02-15T23:12:00;37.23;;;28.33;;
1054;SDS011;516;51.482;7.120;2023-02-15T23:14:26;33.13;;;26.70;;
1054;SDS011;516;51.482;7.120;2023-02-15T23:20:18;36.17;;;28.30;;
1054;SDS011;516;51.482;7.120;2023-02-15T23:26:12;38.50;;;29.40;;
1054;SDS011;516;51.482;7.120;2023-02-15T23:32:39;37.37;;;28.73;;
1054;SDS011;516;51.482;7.120;2023-02-15T23:38:27;33.10;;;27.30;;
1054;SDS011;516;51.482;7.120;2023-02-15T23:44:16;37.03;;;27.80;;
1054;SDS011;516;51.482;7.120;2023-02-15T23:50:08;40.33;;;28.87;;
1054;SDS011;516;51.482;7.120;2023-02-15T23:56:38;41.63;;;29.83;;
